sensor_id;sensor_type;location;lat;lon;timestamp;P1;durP1;ratioP1;P2;durP2;ratioP2
23470;SDS011;11908;50.806;4.424;2023-05-27T00:01:02;20.20;;;4.93;;
23470;SDS011;11908;50.806;4.424;2023-05-27T00:03:28;16.83;;;4.75;;
23470;SDS011;11908;50.806;4.424;2023-05-27T00:05:53;23.40;;;6.18;;
23470;SDS011;11908;50.806;4.424;2023-05-27T00:08:19;17.33;;;5.28;;
23470;SDS011;11908;50.806;4.424;2023-05-27T00:10:45;23.15;;;5.38;;
23470;SDS011;11908;50.806;4.424;2023-05-27T00:13:12;20.63;;;6.13;;
23470;SDS011;11908;50.806;4.424;2023-05-27T00:15:38;21.17;;;5.30;;
23470;SDS011;11908;50.806;4.424;2023-05-27T00:18:05;22.95;;;5.32;;
23470;SDS011;11908;50.806;4.424;2023-05-27T00:20:31;22.65;;;5.15;;
23470;SDS011;11908;50.806;4.424;2023-05-27T00:22:57;21.67;;;4.90;;
23470;SDS011;11908;50.806;4.424;2023-05-27T00:25:25;19.10;;;5.40;;
23470;SDS011;11908;50.806;4.424;2023-05-27T00:27:50;17.85;;;5.10;;
23470;SDS011;11908;50.806;4.424;2023-05-27T00:30:16;19.52;;;5.43;;
23470;SDS011;11908;50.806;4.424;2023-05-27T00:32:42;22.73;;;5.80;;
23470;SDS011;11908;50.806;4.424;2023-05-27T00:35:08;24.33;;;5.82;;
23470;SDS011;11908;50.806;4.424;2023-05-27T00:37:34;20.67;;;5.47;;
23470;SDS011;11908;50.806;4.424;2023-05-27T00:40:00;21.20;;;5.30;;
23470;SDS011;11908;50.806;4.424;2023-05-27T00:42:25;19.48;;;5.45;;
23470;SDS011;11908;50.806;4.424;2023-05-27T00:44:51;20.80;;;5.68;;
23470;SDS011;11908;50.806;4.424;2023-05-27T00:47:17;18.42;;;5.60;;
23470;SDS011;11908;50.806;4.424;2023-05-27T00:49:44;15.38;;;5.03;;
23470;SDS011;11908;50.806;4.424;2023-05-27T00:52:10;19.70;;;5.25;;
23470;SDS011;11908;50.806;4.424;2023-05-27T00:54:38;17.83;;;5.47;;
23470;SDS011;11908;50.806;4.424;2023-05-27T00:57:05;17.55;;;5.75;;
23470;SDS011;11908;50.806;4.424;2023-05-27T00:59:31;25.15;;;5.65;;
23470;SDS011;11908;50.806;4.424;2023-05-27T01:01:57;19.27;;;5.50;;
23470;SDS011;11908;50.806;4.424;2023-05-27T01:04:23;21.98;;;5.32;;
23470;SDS011;11908;50.806;4.424;2023-05-27T01:06:55;28.17;;;6.38;;
23470;SDS011;11908;50.806;4.424;2023-05-27T01:12:16;29.15;;;6.72;;
23470;SDS011;11908;50.806;4.424;2023-05-27T01:14:47;22.02;;;6.25;;
23470;SDS011;11908;50.806;4.424;2023-05-27T01:17:14;23.48;;;4.93;;
23470;SDS011;11908;50.806;4.424;2023-05-27T01:19:41;19.80;;;5.22;;
23470;SDS011;11908;50.806;4.424;2023-05-27T01:22:13;20.58;;;5.53;;
23470;SDS011;11908;50.806;4.424;2023-05-27T01:24:40;18.58;;;5.93;;
23470;SDS011;11908;50.806;4.424;2023-05-27T01:27:09;20.02;;;6.53;;
23470;SDS011;11908;50.806;4.424;2023-05-27T01:29:40;23.80;;;6.45;;
23470;SDS011;11908;50.806;4.424;2023-05-27T01:32:28;16.25;;;5.32;;
23470;SDS011;11908;50.806;4.424;2023-05-27T01:34:59;22.63;;;6.13;;
23470;SDS011;11908;50.806;4.424;2023-05-27T01:37:28;19.88;;;5.35;;
23470;SDS011;11908;50.806;4.424;2023-05-27T01:39:58;17.75;;;5.75;;
23470;SDS011;11908;50.806;4.424;2023-05-27T01:42:25;19.90;;;5.35;;
23470;SDS011;11908;50.806;4.424;2023-05-27T01:44:52;21.85;;;6.03;;
23470;SDS011;11908;50.806;4.424;2023-05-27T01:47:18;19.15;;;5.75;;
23470;SDS011;11908;50.806;4.424;2023-05-27T01:49:44;25.65;;;6.53;;
23470;SDS011;11908;50.806;4.424;2023-05-27T01:52:10;21.70;;;6.28;;
23470;SDS011;11908;50.806;4.424;2023-05-27T01:54:36;22.77;;;5.97;;
23470;SDS011;11908;50.806;4.424;2023-05-27T01:57:02;20.05;;;6.22;;
23470;SDS011;11908;50.806;4.424;2023-05-27T01:59:28;23.40;;;5.97;;
23470;SDS011;11908;50.806;4.424;2023-05-27T02:01:53;24.63;;;5.70;;
23470;SDS011;11908;50.806;4.424;2023-05-27T02:04:19;19.55;;;5.30;;
23470;SDS011;11908;50.806;4.424;2023-05-27T02:06:45;17.58;;;5.63;;
23470;SDS011;11908;50.806;4.424;2023-05-27T02:09:10;19.27;;;5.90;;
23470;SDS011;11908;50.806;4.424;2023-05-27T02:11:38;24.23;;;5.95;;
23470;SDS011;11908;50.806;4.424;2023-05-27T02:14:03;24.85;;;5.85;;
23470;SDS011;11908;50.806;4.424;2023-05-27T02:16:30;22.27;;;5.35;;
23470;SDS011;11908;50.806;4.424;2023-05-27T02:18:59;24.95;;;6.20;;
23470;SDS011;11908;50.806;4.424;2023-05-27T02:21:26;17.33;;;6.00;;
23470;SDS011;11908;50.806;4.424;2023-05-27T02:23:52;20.92;;;5.90;;
23470;SDS011;11908;50.806;4.424;2023-05-27T02:26:17;21.30;;;5.53;;
23470;SDS011;11908;50.806;4.424;2023-05-27T02:28:43;22.75;;;6.22;;
23470;SDS011;11908;50.806;4.424;2023-05-27T02:31:09;24.05;;;6.22;;
23470;SDS011;11908;50.806;4.424;2023-05-27T02:33:34;19.75;;;5.97;;
23470;SDS011;11908;50.806;4.424;2023-05-27T02:36:00;28.15;;;7.78;;
23470;SDS011;11908;50.806;4.424;2023-05-27T02:38:26;25.23;;;6.20;;
23470;SDS011;11908;50.806;4.424;2023-05-27T02:40:51;25.35;;;6.60;;
23470;SDS011;11908;50.806;4.424;2023-05-27T02:43:17;24.05;;;6.15;;
23470;SDS011;11908;50.806;4.424;2023-05-27T02:45:43;31.40;;;6.50;;
23470;SDS011;11908;50.806;4.424;2023-05-27T02:48:08;22.38;;;6.35;;
23470;SDS011;11908;50.806;4.424;2023-05-27T02:50:34;27.35;;;7.30;;
23470;SDS011;11908;50.806;4.424;2023-05-27T02:53:00;20.95;;;6.53;;
23470;SDS011;11908;50.806;4.424;2023-05-27T02:55:25;21.67;;;6.43;;
23470;SDS011;11908;50.806;4.424;2023-05-27T02:57:51;29.40;;;6.68;;
23470;SDS011;11908;50.806;4.424;2023-05-27T03:00:17;26.20;;;6.20;;
23470;SDS011;11908;50.806;4.424;2023-05-27T03:02:43;22.17;;;6.35;;
23470;SDS011;11908;50.806;4.424;2023-05-27T03:05:09;19.77;;;6.43;;
23470;SDS011;11908;50.806;4.424;2023-05-27T03:07:34;26.38;;;6.22;;
23470;SDS011;11908;50.806;4.424;2023-05-27T03:10:00;29.33;;;6.85;;
23470;SDS011;11908;50.806;4.424;2023-05-27T03:12:26;23.17;;;6.22;;
23470;SDS011;11908;50.806;4.424;2023-05-27T03:14:51;26.75;;;6.25;;
23470;SDS011;11908;50.806;4.424;2023-05-27T03:17:18;24.70;;;6.40;;
23470;SDS011;11908;50.806;4.424;2023-05-27T03:19:45;20.50;;;5.75;;
23470;SDS011;11908;50.806;4.424;2023-05-27T03:22:11;26.65;;;6.03;;
23470;SDS011;11908;50.806;4.424;2023-05-27T03:24:37;22.98;;;7.20;;
23470;SDS011;11908;50.806;4.424;2023-05-27T03:27:02;19.25;;;6.72;;
23470;SDS011;11908;50.806;4.424;2023-05-27T03:29:28;21.17;;;6.07;;
23470;SDS011;11908;50.806;4.424;2023-05-27T03:31:55;21.08;;;6.78;;
23470;SDS011;11908;50.806;4.424;2023-05-27T03:34:21;27.20;;;6.88;;
23470;SDS011;11908;50.806;4.424;2023-05-27T03:36:48;22.63;;;6.93;;
23470;SDS011;11908;50.806;4.424;2023-05-27T03:39:15;21.52;;;6.93;;
23470;SDS011;11908;50.806;4.424;2023-05-27T03:41:41;26.25;;;8.20;;
23470;SDS011;11908;50.806;4.424;2023-05-27T03:44:07;21.25;;;7.13;;
23470;SDS011;11908;50.806;4.424;2023-05-27T03:46:33;32.13;;;8.40;;
23470;SDS011;11908;50.806;4.424;2023-05-27T03:49:00;26.80;;;7.15;;
23470;SDS011;11908;50.806;4.424;2023-05-27T03:51:26;21.63;;;7.65;;
23470;SDS011;11908;50.806;4.424;2023-05-27T03:53:51;20.85;;;6.47;;
23470;SDS011;11908;50.806;4.424;2023-05-27T03:56:17;26.40;;;7.13;;
23470;SDS011;11908;50.806;4.424;2023-05-27T03:58:43;28.88;;;7.20;;
23470;SDS011;11908;50.806;4.424;2023-05-27T04:01:08;25.38;;;6.80;;
23470;SDS011;11908;50.806;4.424;2023-05-27T04:03:34;24.60;;;6.53;;
23470;SDS011;11908;50.806;4.424;2023-05-27T04:06:02;22.50;;;7.20;;
23470;SDS011;11908;50.806;4.424;2023-05-27T04:08:27;19.80;;;7.40;;
23470;SDS011;11908;50.806;4.424;2023-05-27T04:10:54;27.38;;;7.60;;
23470;SDS011;11908;50.806;4.424;2023-05-27T04:13:19;22.40;;;6.47;;
23470;SDS011;11908;50.806;4.424;2023-05-27T04:15:45;27.58;;;7.03;;
23470;SDS011;11908;50.806;4.424;2023-05-27T04:18:11;19.63;;;6.60;;
23470;SDS011;11908;50.806;4.424;2023-05-27T04:20:37;19.63;;;6.22;;
23470;SDS011;11908;50.806;4.424;2023-05-27T04:23:05;23.58;;;6.47;;
23470;SDS011;11908;50.806;4.424;2023-05-27T04:25:31;25.42;;;7.22;;
23470;SDS011;11908;50.806;4.424;2023-05-27T04:27:57;20.85;;;6.65;;
23470;SDS011;11908;50.806;4.424;2023-05-27T04:30:23;23.58;;;6.57;;
23470;SDS011;11908;50.806;4.424;2023-05-27T04:32:49;19.25;;;6.32;;
23470;SDS011;11908;50.806;4.424;2023-05-27T04:35:14;18.98;;;5.93;;
23470;SDS011;11908;50.806;4.424;2023-05-27T04:37:41;20.33;;;6.05;;
23470;SDS011;11908;50.806;4.424;2023-05-27T04:40:09;18.65;;;5.82;;
23470;SDS011;11908;50.806;4.424;2023-05-27T04:42:36;24.17;;;7.22;;
23470;SDS011;11908;50.806;4.424;2023-05-27T04:45:05;22.55;;;6.53;;
23470;SDS011;11908;50.806;4.424;2023-05-27T04:47:32;17.70;;;6.07;;
23470;SDS011;11908;50.806;4.424;2023-05-27T04:49:58;16.63;;;5.68;;
23470;SDS011;11908;50.806;4.424;2023-05-27T04:52:26;21.40;;;5.97;;
23470;SDS011;11908;50.806;4.424;2023-05-27T04:54:52;15.43;;;4.97;;
23470;SDS011;11908;50.806;4.424;2023-05-27T04:57:19;17.42;;;5.57;;
23470;SDS011;11908;50.806;4.424;2023-05-27T04:59:46;15.73;;;5.22;;
23470;SDS011;11908;50.806;4.424;2023-05-27T05:02:27;18.50;;;5.75;;
23470;SDS011;11908;50.806;4.424;2023-05-27T05:05:02;15.70;;;5.43;;
23470;SDS011;11908;50.806;4.424;2023-05-27T05:07:29;21.27;;;7.05;;
23470;SDS011;11908;50.806;4.424;2023-05-27T05:09:55;18.77;;;5.60;;
23470;SDS011;11908;50.806;4.424;2023-05-27T05:12:22;16.83;;;5.60;;
23470;SDS011;11908;50.806;4.424;2023-05-27T05:14:48;20.08;;;6.13;;
23470;SDS011;11908;50.806;4.424;2023-05-27T05:17:13;19.08;;;5.68;;
23470;SDS011;11908;50.806;4.424;2023-05-27T05:19:39;18.05;;;5.65;;
23470;SDS011;11908;50.806;4.424;2023-05-27T05:22:05;17.33;;;5.40;;
23470;SDS011;11908;50.806;4.424;2023-05-27T05:24:31;14.25;;;6.32;;
23470;SDS011;11908;50.806;4.424;2023-05-27T05:26:56;19.00;;;5.50;;
23470;SDS011;11908;50.806;4.424;2023-05-27T05:29:22;14.52;;;5.65;;
23470;SDS011;11908;50.806;4.424;2023-05-27T05:31:48;21.77;;;6.07;;
23470;SDS011;11908;50.806;4.424;2023-05-27T05:34:13;16.25;;;5.57;;
23470;SDS011;11908;50.806;4.424;2023-05-27T05:36:39;18.50;;;6.38;;
23470;SDS011;11908;50.806;4.424;2023-05-27T05:39:05;15.52;;;6.13;;
23470;SDS011;11908;50.806;4.424;2023-05-27T05:41:31;18.70;;;5.70;;
23470;SDS011;11908;50.806;4.424;2023-05-27T05:43:57;17.30;;;6.68;;
23470;SDS011;11908;50.806;4.424;2023-05-27T05:46:22;20.90;;;6.13;;
23470;SDS011;11908;50.806;4.424;2023-05-27T05:48:50;13.10;;;5.50;;
23470;SDS011;11908;50.806;4.424;2023-05-27T05:51:17;20.30;;;6.28;;
23470;SDS011;11908;50.806;4.424;2023-05-27T05:53:42;19.90;;;5.88;;
23470;SDS011;11908;50.806;4.424;2023-05-27T05:56:08;16.88;;;5.85;;
23470;SDS011;11908;50.806;4.424;2023-05-27T05:58:34;16.65;;;5.70;;
23470;SDS011;11908;50.806;4.424;2023-05-27T06:01:00;18.77;;;6.25;;
23470;SDS011;11908;50.806;4.424;2023-05-27T06:03:25;13.82;;;6.13;;
23470;SDS011;11908;50.806;4.424;2023-05-27T06:05:51;15.90;;;5.88;;
23470;SDS011;11908;50.806;4.424;2023-05-27T06:08:16;22.48;;;6.47;;
23470;SDS011;11908;50.806;4.424;2023-05-27T06:10:42;16.38;;;5.97;;
23470;SDS011;11908;50.806;4.424;2023-05-27T06:13:08;17.15;;;6.30;;
23470;SDS011;11908;50.806;4.424;2023-05-27T06:15:36;17.08;;;6.00;;
23470;SDS011;11908;50.806;4.424;2023-05-27T06:18:02;19.10;;;6.40;;
23470;SDS011;11908;50.806;4.424;2023-05-27T06:20:28;16.45;;;6.82;;
23470;SDS011;11908;50.806;4.424;2023-05-27T06:22:54;19.52;;;6.28;;
23470;SDS011;11908;50.806;4.424;2023-05-27T06:25:20;21.77;;;7.03;;
23470;SDS011;11908;50.806;4.424;2023-05-27T06:27:46;16.75;;;5.97;;
23470;SDS011;11908;50.806;4.424;2023-05-27T06:30:11;19.20;;;6.30;;
23470;SDS011;11908;50.806;4.424;2023-05-27T06:32:37;16.88;;;6.05;;
23470;SDS011;11908;50.806;4.424;2023-05-27T06:35:03;20.52;;;6.65;;
23470;SDS011;11908;50.806;4.424;2023-05-27T06:37:29;20.73;;;6.60;;
23470;SDS011;11908;50.806;4.424;2023-05-27T06:39:55;19.10;;;6.47;;
23470;SDS011;11908;50.806;4.424;2023-05-27T06:42:20;18.55;;;6.60;;
23470;SDS011;11908;50.806;4.424;2023-05-27T06:44:47;18.30;;;6.28;;
23470;SDS011;11908;50.806;4.424;2023-05-27T06:47:13;21.55;;;6.70;;
23470;SDS011;11908;50.806;4.424;2023-05-27T06:49:39;19.10;;;6.57;;
23470;SDS011;11908;50.806;4.424;2023-05-27T06:52:05;20.05;;;6.20;;
23470;SDS011;11908;50.806;4.424;2023-05-27T06:54:31;16.17;;;6.28;;
23470;SDS011;11908;50.806;4.424;2023-05-27T06:56:57;17.77;;;6.28;;
23470;SDS011;11908;50.806;4.424;2023-05-27T06:59:23;18.50;;;6.63;;
23470;SDS011;11908;50.806;4.424;2023-05-27T07:01:49;19.55;;;5.97;;
23470;SDS011;11908;50.806;4.424;2023-05-27T07:04:15;23.55;;;6.78;;
23470;SDS011;11908;50.806;4.424;2023-05-27T07:06:42;15.20;;;6.38;;
23470;SDS011;11908;50.806;4.424;2023-05-27T07:09:08;17.58;;;6.35;;
23470;SDS011;11908;50.806;4.424;2023-05-27T07:11:33;17.10;;;6.20;;
23470;SDS011;11908;50.806;4.424;2023-05-27T07:13:59;15.88;;;6.10;;
23470;SDS011;11908;50.806;4.424;2023-05-27T07:16:25;19.77;;;6.05;;
23470;SDS011;11908;50.806;4.424;2023-05-27T07:18:51;20.20;;;6.10;;
23470;SDS011;11908;50.806;4.424;2023-05-27T07:21:17;14.27;;;5.85;;
23470;SDS011;11908;50.806;4.424;2023-05-27T07:23:42;15.38;;;5.75;;
23470;SDS011;11908;50.806;4.424;2023-05-27T07:26:08;20.73;;;6.13;;
23470;SDS011;11908;50.806;4.424;2023-05-27T07:28:34;20.73;;;6.38;;
23470;SDS011;11908;50.806;4.424;2023-05-27T07:31:00;20.90;;;6.38;;
23470;SDS011;11908;50.806;4.424;2023-05-27T07:33:26;16.48;;;6.35;;
23470;SDS011;11908;50.806;4.424;2023-05-27T07:35:51;15.55;;;6.15;;
23470;SDS011;11908;50.806;4.424;2023-05-27T07:38:17;16.25;;;6.32;;
23470;SDS011;11908;50.806;4.424;2023-05-27T07:40:43;19.80;;;6.32;;
23470;SDS011;11908;50.806;4.424;2023-05-27T07:43:09;17.05;;;6.82;;
23470;SDS011;11908;50.806;4.424;2023-05-27T07:45:35;20.42;;;6.70;;
23470;SDS011;11908;50.806;4.424;2023-05-27T07:48:01;19.60;;;6.25;;
23470;SDS011;11908;50.806;4.424;2023-05-27T07:50:27;18.80;;;6.43;;
23470;SDS011;11908;50.806;4.424;2023-05-27T07:52:52;17.33;;;6.32;;
23470;SDS011;11908;50.806;4.424;2023-05-27T07:55:18;16.52;;;6.32;;
23470;SDS011;11908;50.806;4.424;2023-05-27T07:57:44;17.42;;;6.75;;
23470;SDS011;11908;50.806;4.424;2023-05-27T08:00:09;18.98;;;6.82;;
23470;SDS011;11908;50.806;4.424;2023-05-27T08:02:35;16.58;;;6.78;;
23470;SDS011;11908;50.806;4.424;2023-05-27T08:05:01;16.95;;;5.95;;
23470;SDS011;11908;50.806;4.424;2023-05-27T08:07:29;18.77;;;7.18;;
23470;SDS011;11908;50.806;4.424;2023-05-27T08:09:55;18.75;;;6.88;;
23470;SDS011;11908;50.806;4.424;2023-05-27T08:12:21;18.92;;;7.15;;
23470;SDS011;11908;50.806;4.424;2023-05-27T08:14:48;17.75;;;6.20;;
23470;SDS011;11908;50.806;4.424;2023-05-27T08:17:14;18.50;;;6.55;;
23470;SDS011;11908;50.806;4.424;2023-05-27T08:19:40;23.52;;;6.82;;
23470;SDS011;11908;50.806;4.424;2023-05-27T08:22:06;19.58;;;6.80;;
23470;SDS011;11908;50.806;4.424;2023-05-27T08:24:35;18.48;;;6.20;;
23470;SDS011;11908;50.806;4.424;2023-05-27T08:27:01;15.52;;;6.13;;
23470;SDS011;11908;50.806;4.424;2023-05-27T08:29:27;20.25;;;6.20;;
23470;SDS011;11908;50.806;4.424;2023-05-27T08:31:55;19.35;;;6.68;;
23470;SDS011;11908;50.806;4.424;2023-05-27T08:34:21;12.50;;;5.85;;
23470;SDS011;11908;50.806;4.424;2023-05-27T08:36:47;15.70;;;5.90;;
23470;SDS011;11908;50.806;4.424;2023-05-27T08:39:13;19.00;;;6.60;;
23470;SDS011;11908;50.806;4.424;2023-05-27T08:41:38;18.67;;;6.45;;
23470;SDS011;11908;50.806;4.424;2023-05-27T08:44:05;20.08;;;6.60;;
23470;SDS011;11908;50.806;4.424;2023-05-27T08:46:31;18.80;;;6.20;;
23470;SDS011;11908;50.806;4.424;2023-05-27T08:48:58;16.92;;;5.53;;
23470;SDS011;11908;50.806;4.424;2023-05-27T08:51:24;20.75;;;6.95;;
23470;SDS011;11908;50.806;4.424;2023-05-27T08:53:52;14.80;;;5.45;;
23470;SDS011;11908;50.806;4.424;2023-05-27T08:56:20;17.90;;;6.57;;
23470;SDS011;11908;50.806;4.424;2023-05-27T08:58:47;16.80;;;6.32;;
23470;SDS011;11908;50.806;4.424;2023-05-27T09:01:17;19.05;;;7.13;;
23470;SDS011;11908;50.806;4.424;2023-05-27T09:03:43;17.70;;;6.00;;
23470;SDS011;11908;50.806;4.424;2023-05-27T09:06:10;18.50;;;6.03;;
23470;SDS011;11908;50.806;4.424;2023-05-27T09:08:36;17.13;;;5.65;;
23470;SDS011;11908;50.806;4.424;2023-05-27T09:11:02;16.55;;;6.18;;
23470;SDS011;11908;50.806;4.424;2023-05-27T09:13:29;19.88;;;7.15;;
23470;SDS011;11908;50.806;4.424;2023-05-27T09:16:03;16.98;;;6.05;;
23470;SDS011;11908;50.806;4.424;2023-05-27T09:18:33;17.55;;;6.07;;
23470;SDS011;11908;50.806;4.424;2023-05-27T09:21:01;18.25;;;6.47;;
23470;SDS011;11908;50.806;4.424;2023-05-27T09:23:27;17.60;;;6.32;;
23470;SDS011;11908;50.806;4.424;2023-05-27T09:25:53;20.08;;;6.10;;
23470;SDS011;11908;50.806;4.424;2023-05-27T09:28:22;16.73;;;5.97;;
23470;SDS011;11908;50.806;4.424;2023-05-27T09:33:30;16.63;;;5.97;;
23470;SDS011;11908;50.806;4.424;2023-05-27T09:35:57;18.17;;;6.75;;
23470;SDS011;11908;50.806;4.424;2023-05-27T09:38:27;20.10;;;5.85;;
23470;SDS011;11908;50.806;4.424;2023-05-27T09:40:53;16.98;;;5.85;;
23470;SDS011;11908;50.806;4.424;2023-05-27T09:43:19;16.15;;;5.70;;
23470;SDS011;11908;50.806;4.424;2023-05-27T09:45:45;15.15;;;6.07;;
23470;SDS011;11908;50.806;4.424;2023-05-27T09:48:11;13.23;;;5.65;;
23470;SDS011;11908;50.806;4.424;2023-05-27T09:50:40;15.90;;;5.85;;
23470;SDS011;11908;50.806;4.424;2023-05-27T09:53:06;19.65;;;6.68;;
23470;SDS011;11908;50.806;4.424;2023-05-27T09:55:33;20.35;;;6.18;;
23470;SDS011;11908;50.806;4.424;2023-05-27T09:57:59;13.00;;;5.55;;
23470;SDS011;11908;50.806;4.424;2023-05-27T10:00:26;23.08;;;5.90;;
23470;SDS011;11908;50.806;4.424;2023-05-27T10:02:53;15.80;;;5.35;;
23470;SDS011;11908;50.806;4.424;2023-05-27T10:05:22;19.33;;;5.60;;
23470;SDS011;11908;50.806;4.424;2023-05-27T10:07:48;18.38;;;6.00;;
23470;SDS011;11908;50.806;4.424;2023-05-27T10:10:17;16.48;;;5.72;;
23470;SDS011;11908;50.806;4.424;2023-05-27T10:12:44;19.35;;;5.78;;
23470;SDS011;11908;50.806;4.424;2023-05-27T10:15:24;17.65;;;5.60;;
23470;SDS011;11908;50.806;4.424;2023-05-27T10:17:57;12.52;;;5.07;;
23470;SDS011;11908;50.806;4.424;2023-05-27T10:20:26;15.43;;;5.10;;
23470;SDS011;11908;50.806;4.424;2023-05-27T10:22:57;16.60;;;5.78;;
23470;SDS011;11908;50.806;4.424;2023-05-27T10:25:39;17.67;;;6.07;;
23470;SDS011;11908;50.806;4.424;2023-05-27T10:28:05;16.30;;;5.43;;
23470;SDS011;11908;50.806;4.424;2023-05-27T10:30:42;16.95;;;5.82;;
23470;SDS011;11908;50.806;4.424;2023-05-27T10:33:09;17.55;;;5.82;;
23470;SDS011;11908;50.806;4.424;2023-05-27T10:35:39;15.00;;;5.30;;
23470;SDS011;11908;50.806;4.424;2023-05-27T10:38:15;14.60;;;5.15;;
23470;SDS011;11908;50.806;4.424;2023-05-27T10:40:41;16.85;;;5.93;;
23470;SDS011;11908;50.806;4.424;2023-05-27T10:43:17;18.42;;;5.57;;
23470;SDS011;11908;50.806;4.424;2023-05-27T10:45:44;14.02;;;5.75;;
23470;SDS011;11908;50.806;4.424;2023-05-27T10:48:20;15.43;;;5.35;;
23470;SDS011;11908;50.806;4.424;2023-05-27T10:50:52;21.77;;;6.47;;
23470;SDS011;11908;50.806;4.424;2023-05-27T10:53:21;19.08;;;5.80;;
23470;SDS011;11908;50.806;4.424;2023-05-27T10:55:47;12.02;;;5.13;;
23470;SDS011;11908;50.806;4.424;2023-05-27T10:58:17;13.48;;;5.10;;
23470;SDS011;11908;50.806;4.424;2023-05-27T11:00:45;18.27;;;5.68;;
23470;SDS011;11908;50.806;4.424;2023-05-27T11:03:27;18.95;;;5.05;;
23470;SDS011;11908;50.806;4.424;2023-05-27T11:08:22;18.23;;;5.20;;
23470;SDS011;11908;50.806;4.424;2023-05-27T11:10:48;10.57;;;4.57;;
23470;SDS011;11908;50.806;4.424;2023-05-27T11:13:14;14.02;;;4.88;;
23470;SDS011;11908;50.806;4.424;2023-05-27T11:15:39;13.43;;;4.53;;
23470;SDS011;11908;50.806;4.424;2023-05-27T11:18:07;13.75;;;5.00;;
23470;SDS011;11908;50.806;4.424;2023-05-27T11:20:37;17.20;;;5.13;;
23470;SDS011;11908;50.806;4.424;2023-05-27T11:23:03;20.90;;;5.70;;
23470;SDS011;11908;50.806;4.424;2023-05-27T11:25:40;17.55;;;5.13;;
23470;SDS011;11908;50.806;4.424;2023-05-27T11:28:15;20.48;;;5.85;;
23470;SDS011;11908;50.806;4.424;2023-05-27T11:30:41;13.02;;;4.07;;
23470;SDS011;11908;50.806;4.424;2023-05-27T11:33:08;16.45;;;5.18;;
23470;SDS011;11908;50.806;4.424;2023-05-27T11:35:33;12.18;;;4.30;;
23470;SDS011;11908;50.806;4.424;2023-05-27T11:37:59;14.60;;;4.63;;
23470;SDS011;11908;50.806;4.424;2023-05-27T11:40:33;15.38;;;4.90;;
23470;SDS011;11908;50.806;4.424;2023-05-27T11:43:00;15.98;;;4.53;;
23470;SDS011;11908;50.806;4.424;2023-05-27T11:45:27;12.07;;;4.03;;
23470;SDS011;11908;50.806;4.424;2023-05-27T11:47:52;14.50;;;4.40;;
23470;SDS011;11908;50.806;4.424;2023-05-27T11:50:22;13.95;;;4.32;;
23470;SDS011;11908;50.806;4.424;2023-05-27T11:52:56;14.48;;;4.50;;
23470;SDS011;11908;50.806;4.424;2023-05-27T11:55:23;9.85;;;3.80;;
23470;SDS011;11908;50.806;4.424;2023-05-27T11:57:49;13.55;;;4.38;;
23470;SDS011;11908;50.806;4.424;2023-05-27T12:00:14;8.05;;;3.25;;
23470;SDS011;11908;50.806;4.424;2023-05-27T12:02:41;14.60;;;3.88;;
23470;SDS011;11908;50.806;4.424;2023-05-27T12:05:08;11.98;;;4.50;;
23470;SDS011;11908;50.806;4.424;2023-05-27T12:07:34;16.38;;;3.88;;
23470;SDS011;11908;50.806;4.424;2023-05-27T12:10:04;11.23;;;3.75;;
23470;SDS011;11908;50.806;4.424;2023-05-27T12:12:31;13.90;;;4.47;;
23470;SDS011;11908;50.806;4.424;2023-05-27T12:14:59;10.85;;;4.30;;
23470;SDS011;11908;50.806;4.424;2023-05-27T12:17:25;12.68;;;4.05;;
23470;SDS011;11908;50.806;4.424;2023-05-27T12:19:51;12.30;;;4.38;;
23470;SDS011;11908;50.806;4.424;2023-05-27T12:22:17;13.25;;;4.03;;
23470;SDS011;11908;50.806;4.424;2023-05-27T12:24:42;11.43;;;4.30;;
23470;SDS011;11908;50.806;4.424;2023-05-27T12:27:08;15.65;;;4.30;;
23470;SDS011;11908;50.806;4.424;2023-05-27T12:29:34;19.08;;;3.95;;
23470;SDS011;11908;50.806;4.424;2023-05-27T12:31:59;12.25;;;4.25;;
23470;SDS011;11908;50.806;4.424;2023-05-27T12:34:25;13.20;;;4.10;;
23470;SDS011;11908;50.806;4.424;2023-05-27T12:36:51;18.40;;;4.15;;
23470;SDS011;11908;50.806;4.424;2023-05-27T12:39:17;10.43;;;3.92;;
23470;SDS011;11908;50.806;4.424;2023-05-27T12:41:42;17.83;;;4.68;;
23470;SDS011;11908;50.806;4.424;2023-05-27T12:44:08;16.58;;;4.38;;
23470;SDS011;11908;50.806;4.424;2023-05-27T12:46:33;8.43;;;3.50;;
23470;SDS011;11908;50.806;4.424;2023-05-27T12:48:59;11.50;;;4.07;;
23470;SDS011;11908;50.806;4.424;2023-05-27T12:51:25;14.43;;;4.40;;
23470;SDS011;11908;50.806;4.424;2023-05-27T12:53:51;15.02;;;4.28;;
23470;SDS011;11908;50.806;4.424;2023-05-27T12:56:16;11.57;;;4.00;;
23470;SDS011;11908;50.806;4.424;2023-05-27T12:58:42;13.38;;;4.65;;
23470;SDS011;11908;50.806;4.424;2023-05-27T13:01:08;13.73;;;4.40;;
23470;SDS011;11908;50.806;4.424;2023-05-27T13:03:33;13.48;;;3.78;;
23470;SDS011;11908;50.806;4.424;2023-05-27T13:05:59;13.18;;;4.05;;
23470;SDS011;11908;50.806;4.424;2023-05-27T13:08:25;14.93;;;4.22;;
23470;SDS011;11908;50.806;4.424;2023-05-27T13:10:50;12.50;;;4.05;;
23470;SDS011;11908;50.806;4.424;2023-05-27T13:13:16;10.98;;;3.75;;
23470;SDS011;11908;50.806;4.424;2023-05-27T13:15:43;16.27;;;5.03;;
23470;SDS011;11908;50.806;4.424;2023-05-27T13:18:08;11.15;;;4.45;;
23470;SDS011;11908;50.806;4.424;2023-05-27T13:20:35;15.57;;;3.90;;
23470;SDS011;11908;50.806;4.424;2023-05-27T13:23:01;15.95;;;4.40;;
23470;SDS011;11908;50.806;4.424;2023-05-27T13:25:27;13.57;;;4.72;;
23470;SDS011;11908;50.806;4.424;2023-05-27T13:27:54;13.57;;;4.28;;
23470;SDS011;11908;50.806;4.424;2023-05-27T13:30:20;16.80;;;4.72;;
23470;SDS011;11908;50.806;4.424;2023-05-27T13:32:46;15.43;;;4.53;;
23470;SDS011;11908;50.806;4.424;2023-05-27T13:35:12;17.67;;;3.92;;
23470;SDS011;11908;50.806;4.424;2023-05-27T13:37:39;16.73;;;4.70;;
23470;SDS011;11908;50.806;4.424;2023-05-27T13:40:06;13.18;;;4.25;;
23470;SDS011;11908;50.806;4.424;2023-05-27T13:42:32;17.00;;;4.50;;
23470;SDS011;11908;50.806;4.424;2023-05-27T13:44:58;10.70;;;3.78;;
23470;SDS011;11908;50.806;4.424;2023-05-27T13:47:24;11.60;;;3.95;;
23470;SDS011;11908;50.806;4.424;2023-05-27T13:49:49;12.05;;;4.15;;
23470;SDS011;11908;50.806;4.424;2023-05-27T13:52:15;14.73;;;4.57;;
23470;SDS011;11908;50.806;4.424;2023-05-27T13:54:41;15.27;;;4.25;;
23470;SDS011;11908;50.806;4.424;2023-05-27T13:57:07;11.82;;;4.30;;
23470;SDS011;11908;50.806;4.424;2023-05-27T13:59:33;12.57;;;4.15;;
23470;SDS011;11908;50.806;4.424;2023-05-27T14:01:59;13.23;;;4.28;;
23470;SDS011;11908;50.806;4.424;2023-05-27T14:04:30;13.77;;;4.00;;
23470;SDS011;11908;50.806;4.424;2023-05-27T14:06:59;10.85;;;3.88;;
23470;SDS011;11908;50.806;4.424;2023-05-27T14:09:24;17.50;;;4.50;;
23470;SDS011;11908;50.806;4.424;2023-05-27T14:11:50;10.50;;;3.50;;
23470;SDS011;11908;50.806;4.424;2023-05-27T14:14:16;9.82;;;3.85;;
23470;SDS011;11908;50.806;4.424;2023-05-27T14:16:42;12.25;;;3.80;;
23470;SDS011;11908;50.806;4.424;2023-05-27T14:19:07;9.77;;;3.75;;
23470;SDS011;11908;50.806;4.424;2023-05-27T14:21:33;13.15;;;4.47;;
23470;SDS011;11908;50.806;4.424;2023-05-27T14:23:59;16.33;;;4.47;;
23470;SDS011;11908;50.806;4.424;2023-05-27T14:26:25;12.60;;;3.92;;
23470;SDS011;11908;50.806;4.424;2023-05-27T14:28:51;14.38;;;5.10;;
23470;SDS011;11908;50.806;4.424;2023-05-27T14:31:17;12.65;;;4.22;;
23470;SDS011;11908;50.806;4.424;2023-05-27T14:33:42;13.18;;;5.03;;
23470;SDS011;11908;50.806;4.424;2023-05-27T14:36:08;14.25;;;4.07;;
23470;SDS011;11908;50.806;4.424;2023-05-27T14:38:34;12.65;;;3.83;;
23470;SDS011;11908;50.806;4.424;2023-05-27T14:41:00;11.40;;;4.10;;